createdAt,value
2018-08-19T00:01:53.854Z,1024.2
2018-08-19T00:06:52.622Z,1024.1
2018-08-19T00:11:52.892Z,1024.1
2018-08-19T00:16:53.615Z,1024.1
2018-08-19T00:21:53.599Z,1024
2018-08-19T00:26:53.226Z,1023.9
2018-08-19T00:31:54.963Z,1023.9
2018-08-19T00:36:53.000Z,1024
2018-08-19T00:41:53.183Z,1023.9
2018-08-19T00:46:53.487Z,1023.9
2018-08-19T00:51:52.943Z,1024
2018-08-19T00:56:52.584Z,1024
2018-08-19T01:01:52.889Z,1024
2018-08-19T01:06:53.410Z,1023.9
2018-08-19T01:11:52.583Z,1023.9
2018-08-19T01:16:52.904Z,1023.8
2018-08-19T01:21:53.378Z,1023.8
2018-08-19T01:26:52.934Z,1024
2018-08-19T01:31:53.264Z,1023.9
2018-08-19T01:36:52.715Z,1024
2018-08-19T01:41:53.301Z,1023.9
2018-08-19T01:46:53.261Z,1023.8
2018-08-19T01:51:53.137Z,1023.9
2018-08-19T01:56:53.342Z,1023.9
2018-08-19T02:01:52.576Z,1023.8
2018-08-19T02:06:53.052Z,1023.8
2018-08-19T02:11:53.334Z,1023.8
2018-08-19T02:16:58.040Z,1023.9
2018-08-19T02:21:53.497Z,1023.8
2018-08-19T02:26:52.983Z,1023.9
2018-08-19T02:31:52.982Z,1023.8
2018-08-19T02:36:53.432Z,1023.8
2018-08-19T02:41:52.623Z,1023.7
2018-08-19T02:46:52.924Z,1023.7
2018-08-19T02:51:55.175Z,1023.8
2018-08-19T02:56:53.381Z,1023.8
2018-08-19T03:01:53.282Z,1023.8
2018-08-19T03:06:52.744Z,1023.7
2018-08-19T03:11:52.976Z,1023.8
2018-08-19T03:16:53.679Z,1023.8
2018-08-19T03:21:52.697Z,1023.7
2018-08-19T03:26:53.319Z,1023.8
2018-08-19T03:31:58.267Z,1023.8
2018-08-19T03:36:53.071Z,1023.7
2018-08-19T03:41:53.661Z,1023.7
2018-08-19T03:46:52.588Z,1023.7
2018-08-19T03:51:53.062Z,1023.6
2018-08-19T03:56:53.125Z,1023.7
2018-08-19T04:01:52.921Z,1023.8
2018-08-19T04:06:53.407Z,1023.6
2018-08-19T04:11:52.657Z,1023.7
2018-08-19T04:16:52.943Z,1023.7
2018-08-19T04:21:58.817Z,1023.7
2018-08-19T04:26:53.013Z,1023.7
2018-08-19T04:31:53.313Z,1023.7
2018-08-19T04:36:53.215Z,1023.7
2018-08-19T04:41:52.960Z,1023.7
2018-08-19T04:46:53.651Z,1023.7
2018-08-19T04:51:52.746Z,1023.7
2018-08-19T04:56:53.320Z,1023.6
2018-08-19T05:01:58.148Z,1023.6
2018-08-19T05:06:53.153Z,1023.8
2018-08-19T05:11:52.863Z,1023.8
2018-08-19T05:16:53.151Z,1023.7
2018-08-19T05:21:53.626Z,1023.7
2018-08-19T05:26:53.219Z,1023.8
2018-08-19T05:31:53.531Z,1023.9
2018-08-19T05:36:53.522Z,1023.9
2018-08-19T05:41:52.753Z,1023.8
2018-08-19T05:46:53.042Z,1023.8
2018-08-19T05:51:53.862Z,1023.8
2018-08-19T05:56:53.083Z,1023.8
2018-08-19T06:01:53.337Z,1023.8
2018-08-19T06:06:52.854Z,1023.7
2018-08-19T06:11:53.096Z,1023.6
2018-08-19T06:16:53.381Z,1023.6
2018-08-19T06:21:53.619Z,1023.6
2018-08-19T06:26:53.488Z,1023.6
2018-08-19T06:31:53.073Z,1023.6
2018-08-19T06:36:53.582Z,1023.6
2018-08-19T06:41:53.415Z,1023.6
2018-08-19T06:46:52.742Z,1023.6
2018-08-19T06:51:53.168Z,1023.6
2018-08-19T06:56:52.688Z,1023.6
2018-08-19T07:01:53.029Z,1023.6
2018-08-19T07:06:53.887Z,1023.5
2018-08-19T07:11:53.101Z,1023.5
2018-08-19T07:16:53.375Z,1023.6
2018-08-19T07:21:53.425Z,1023.5
2018-08-19T07:26:53.571Z,1023.5
2018-08-19T07:31:53.954Z,1023.5
2018-08-19T07:36:53.547Z,1023.4
2018-08-19T07:41:53.047Z,1023.4
2018-08-19T07:46:53.302Z,1023.4
2018-08-19T07:51:52.762Z,1023.5
2018-08-19T07:56:53.326Z,1023.4
2018-08-19T08:01:52.625Z,1023.4
2018-08-19T08:06:53.130Z,1023.4
2018-08-19T08:11:53.388Z,1023.3
2018-08-19T08:16:52.684Z,1023.4
2018-08-19T08:21:53.158Z,1023.4
2018-08-19T08:26:52.724Z,1023.4
2018-08-19T08:31:52.999Z,1023.3
2018-08-19T08:36:54.506Z,1023.3
2018-08-19T08:41:52.733Z,1023.3
2018-08-19T08:46:53.033Z,1023.2
2018-08-19T08:51:53.438Z,1023.3
2018-08-19T08:56:53.019Z,1023.2
2018-08-19T09:01:53.371Z,1023.2
2018-08-19T09:06:52.819Z,1023.2
2018-08-19T09:11:53.098Z,1023.1
2018-08-19T09:16:53.354Z,1023.1
2018-08-19T09:21:52.813Z,1023.2
2018-08-19T09:26:53.376Z,1023.1
2018-08-19T09:31:52.823Z,1023.1
2018-08-19T09:36:53.206Z,1023.1
2018-08-19T09:41:53.777Z,1023
2018-08-19T09:46:52.698Z,1022.9
2018-08-19T09:51:53.138Z,1023
2018-08-19T09:56:52.762Z,1022.9
2018-08-19T10:01:53.052Z,1022.9
2018-08-19T10:06:53.428Z,1022.7
2018-08-19T10:11:52.667Z,1022.7
2018-08-19T10:16:52.948Z,1022.6
2018-08-19T10:21:53.386Z,1022.5
2018-08-19T10:26:53.526Z,1022.5
2018-08-19T10:31:53.264Z,1022.5
2018-08-19T10:36:52.735Z,1022.4
2018-08-19T10:41:52.903Z,1022.3
2018-08-19T10:46:53.268Z,1022.3
2018-08-19T10:51:52.688Z,1022.3
2018-08-19T10:56:53.302Z,1022.1
2018-08-19T11:01:57.570Z,1022
2018-08-19T11:06:53.437Z,1021.9
2018-08-19T11:11:53.831Z,1021.9
2018-08-19T11:16:54.515Z,1021.9
2018-08-19T11:21:52.944Z,1021.9
2018-08-19T11:26:52.542Z,1021.8
2018-08-19T11:31:52.848Z,1021.7
2018-08-19T11:36:53.299Z,1021.7
2018-08-19T11:41:52.580Z,1021.6
2018-08-19T11:46:52.824Z,1021.6
2018-08-19T11:51:53.304Z,1021.6
2018-08-19T11:56:53.312Z,1021.6
2018-08-19T12:01:53.163Z,1021.4
2018-08-19T12:06:52.749Z,1021.5
2018-08-19T12:11:52.917Z,1021.5
2018-08-19T12:16:53.603Z,1021.4
2018-08-19T12:21:52.732Z,1021.4
2018-08-19T12:26:53.278Z,1021.3
2018-08-19T12:31:52.565Z,1021.2
2018-08-19T12:36:53.035Z,1021.3
2018-08-19T12:41:54.663Z,1021.2
2018-08-19T12:46:52.546Z,1021
2018-08-19T12:51:53.063Z,1020.9
2018-08-19T12:56:53.206Z,1020.8
2018-08-19T13:01:54.277Z,1020.8
2018-08-19T13:06:53.357Z,1020.7
2018-08-19T13:11:52.655Z,1020.8
2018-08-19T13:16:52.911Z,1020.7
2018-08-19T13:21:53.735Z,1020.7
2018-08-19T13:26:52.902Z,1020.6
2018-08-19T13:31:53.255Z,1020.5
2018-08-19T13:36:52.653Z,1020.5
2018-08-19T13:41:52.913Z,1020.4
2018-08-19T13:46:53.165Z,1020.4
2018-08-19T13:51:53.664Z,1020.3
2018-08-19T13:56:53.639Z,1020.1
2018-08-19T14:01:52.692Z,1020.1
2018-08-19T14:06:59.523Z,1020
2018-08-19T14:11:53.240Z,1020
2018-08-19T14:16:52.615Z,1020
2018-08-19T14:21:53.009Z,1020
2018-08-19T14:26:52.683Z,1019.8
2018-08-19T14:31:52.915Z,1019.9
2018-08-19T14:36:53.386Z,1019.9
2018-08-19T14:41:52.631Z,1019.9
2018-08-19T14:46:52.945Z,1019.8
2018-08-19T14:51:54.215Z,1019.8
2018-08-19T14:56:53.026Z,1019.8
2018-08-19T15:01:53.363Z,1019.7
2018-08-19T15:06:52.770Z,1019.7
2018-08-19T15:11:53.084Z,1019.7
2018-08-19T15:16:53.460Z,1019.6
2018-08-19T15:21:52.811Z,1019.5
2018-08-19T15:26:53.397Z,1019.5
2018-08-19T15:31:54.144Z,1019.5
2018-08-19T15:36:53.132Z,1019.4
2018-08-19T15:41:53.370Z,1019.3
2018-08-19T15:46:52.743Z,1019.4
2018-08-19T15:51:53.134Z,1019.3
2018-08-19T15:56:52.748Z,1019.3
2018-08-19T16:01:53.611Z,1019.3
2018-08-19T16:06:53.513Z,1019.2
2018-08-19T16:11:53.348Z,1019.2
2018-08-19T16:16:53.019Z,1019.2
2018-08-19T16:21:54.088Z,1019.3
2018-08-19T16:26:53.081Z,1019.2
2018-08-19T16:31:54.550Z,1019.2
2018-08-19T16:36:52.884Z,1019.1
2018-08-19T16:41:53.698Z,1019.1
2018-08-19T16:46:53.360Z,1019.1
2018-08-19T16:51:52.803Z,1019.1
2018-08-19T16:56:53.988Z,1019.1
2018-08-19T17:01:52.817Z,1019
2018-08-19T17:06:59.151Z,1019
2018-08-19T17:11:53.859Z,1019
2018-08-19T17:16:53.173Z,1019
2018-08-19T17:21:54.258Z,1019.1
2018-08-19T17:26:53.443Z,1019
2018-08-19T17:31:53.731Z,1019
2018-08-19T17:36:59.245Z,1018.9
2018-08-19T17:41:52.770Z,1019
2018-08-19T17:46:53.575Z,1019
2018-08-19T17:51:53.523Z,1019
2018-08-19T17:56:58.233Z,1019
2018-08-19T18:01:53.407Z,1019
2018-08-19T18:06:53.523Z,1019.1
2018-08-19T18:11:53.203Z,1019.1
2018-08-19T18:16:53.439Z,1019
2018-08-19T18:21:53.275Z,1019
2018-08-19T18:26:53.861Z,1019
2018-08-19T18:31:52.791Z,1019.1
2018-08-19T18:36:53.222Z,1019.1
2018-08-19T18:41:58.567Z,1019.1
2018-08-19T18:46:52.719Z,1019.1
2018-08-19T18:51:53.153Z,1019
2018-08-19T18:56:52.797Z,1019
2018-08-19T19:01:53.064Z,1019
2018-08-19T19:06:53.642Z,1019.1
2018-08-19T19:11:52.843Z,1019.2
2018-08-19T19:16:53.123Z,1019.2
2018-08-19T19:21:53.597Z,1019.2
2018-08-19T19:26:53.151Z,1019.3
2018-08-19T19:31:53.454Z,1019.2
2018-08-19T19:36:52.928Z,1019.2
2018-08-19T19:41:53.146Z,1019.2
2018-08-19T19:46:53.457Z,1019.3
2018-08-19T19:51:52.919Z,1019.3
2018-08-19T19:56:53.873Z,1019.2
2018-08-19T20:01:54.139Z,1019.3
2018-08-19T20:06:53.298Z,1019.3
2018-08-19T20:11:53.491Z,1019.3
2018-08-19T20:16:52.823Z,1019.2
2018-08-19T20:21:53.258Z,1019.3
2018-08-19T20:26:52.887Z,1019.3
2018-08-19T20:31:53.252Z,1019.4
2018-08-19T20:36:54.023Z,1019.4
2018-08-19T20:41:52.899Z,1019.4
2018-08-19T20:46:53.102Z,1019.4
2018-08-19T20:51:53.581Z,1019.4
2018-08-19T20:56:53.225Z,1019.6
2018-08-19T21:01:53.528Z,1019.6
2018-08-19T21:06:53.390Z,1019.7
2018-08-19T21:11:53.207Z,1019.7
2018-08-19T21:16:53.481Z,1019.7
2018-08-19T21:21:53.380Z,1019.7
2018-08-19T21:26:52.574Z,1019.8
2018-08-19T21:31:53.217Z,1019.8
2018-08-19T21:36:53.720Z,1019.8
2018-08-19T21:41:52.552Z,1019.9
2018-08-19T21:46:52.865Z,1019.9
2018-08-19T21:51:53.350Z,1019.8
2018-08-19T21:56:53.583Z,1019.8
2018-08-19T22:01:53.186Z,1019.8
2018-08-19T22:06:53.308Z,1019.8
2018-08-19T22:11:52.945Z,1019.8
2018-08-19T22:16:53.220Z,1019.8
2018-08-19T22:21:52.684Z,1019.9
2018-08-19T22:26:53.324Z,1019.8
2018-08-19T22:31:52.545Z,1019.8
2018-08-19T22:36:53.461Z,1019.8
2018-08-19T22:41:53.745Z,1019.8
2018-08-19T22:46:52.570Z,1019.7
2018-08-19T22:51:53.039Z,1019.8
2018-08-19T22:56:52.662Z,1019.7
2018-08-19T23:01:52.916Z,1019.8
2018-08-19T23:06:53.435Z,1019.8
2018-08-19T23:11:52.643Z,1019.8
2018-08-19T23:16:52.929Z,1019.7
2018-08-19T23:21:53.387Z,1019.8
2018-08-19T23:26:52.975Z,1019.7
2018-08-19T23:31:53.299Z,1019.7
2018-08-19T23:36:52.757Z,1019.7
2018-08-19T23:41:53.332Z,1019.7
2018-08-19T23:46:53.300Z,1019.7
2018-08-19T23:51:52.698Z,1019.7
2018-08-19T23:56:53.655Z,1019.7
